Accueil
METAR-TAF:

METAR-TAF

Aéroports :

Woensdrecht, Pays-Bas

latitude: 51-27N, longitude: 004-20E, altitude: 20 m

Observation

Le bulletin a été fait il y a 36 minutes, à 16:55 UTC
Vent 2 kt de direction variable
Température 18°C
Humidité 64%
Pression 1018 hPa
Visibilité 10 km ou plus
Ciel couvert à une hauteur de 25000 ft

METAR: EHWO 211655Z AUTO VRB02KT 9999 OVC250 18/11 Q1018 BLU

Heure: 19:31 (17:31 UTC)

Prévision

Le bulletin a été fait il y a 4 heures et 58 minutes, à 12:33 UTC
Prévision valable du 21 à 13 UTC au 22 à 01 UTC
Vent 5 kt de sud
Visibilité 10 km ou plus
Quelques nuages à une hauteur de 3500 ft

TAF: EHWO 211233Z 2113/2201 18005KT 9999 FEW035

Observations et prévisions météorologiques de plus de 4000 aéroports (messages METAR et TAF).

Les stations disponibles sont représentées par des disques jaunes et rouges sur la carte.

Passer la souris dessus pour voir le nom de la station.

Cliquer dessus pour voir les observations et prévisions météorologiques.

Pour changer de carte: cliquez sur les boutons verts avec une croix noire pour zoomer, sur le bouton vert avec un tiret pour effectuer un zoom arrière, ou sur les flèches vertes pour les cartes adjacentes.


METAR-TAF: